Time,TemperatureF,DewpointF,PressureIn,WindDirection,WindDirectionDegrees,WindSpeedMPH,WindSpeedGustMPH,Humidity,HourlyPrecipIn,Conditions,Clouds,dailyrainin,SoftwareType,DateUTC
2013-01-20 00:00:00,38.2,33.5,30.21,North,32767,0.0,0.0,83,0.00,,,0.00,Wunderground v.1.13,2013-01-20 08:00:00,
2013-01-20 00:05:00,38.1,33.4,30.22,North,32767,0.0,0.0,83,0.00,,,0.00,Wunderground v.1.13,2013-01-20 08:05:00,
2013-01-20 00:15:00,37.8,33.1,30.21,North,360,0.0,0.0,83,0.00,,,0.00,Wunderground v.1.13,2013-01-20 08:15:00,
2013-01-20 00:20:00,37.7,33.0,30.22,North,32767,0.0,0.0,83,0.00,,,0.00,Wunderground v.1.13,2013-01-20 08:20:00,
2013-01-20 00:25:00,37.6,33.2,30.22,North,360,0.0,0.0,84,0.00,,,0.00,Wunderground v.1.13,2013-01-20 08:25:00,
2013-01-20 00:30:00,37.5,32.8,30.21,North,32767,0.0,0.0,83,0.00,,,0.00,Wunderground v.1.13,2013-01-20 08:30:00,
2013-01-20 00:35:00,37.3,32.9,30.21,North,32767,0.0,0.0,84,0.00,,,0.00,Wunderground v.1.13,2013-01-20 08:35:00,
2013-01-20 00:45:00,37.1,32.7,30.21,North,32767,0.0,0.0,84,0.00,,,0.00,Wunderground v.1.13,2013-01-20 08:45:00,
2013-01-20 00:50:00,37.0,32.6,30.21,North,360,0.0,0.0,84,0.00,,,0.00,Wunderground v.1.13,2013-01-20 08:50:00,
2013-01-20 00:55:00,36.9,32.5,30.21,North,32767,0.0,0.0,84,0.00,,,0.00,Wunderground v.1.13,2013-01-20 08:55:00,
2013-01-20 01:00:00,36.8,32.4,30.21,North,360,0.0,0.0,84,0.00,,,0.00,Wunderground v.1.13,2013-01-20 09:00:00,
2013-01-20 01:06:00,36.8,32.7,30.21,North,32767,0.0,0.0,85,0.00,,,0.00,Wunderground v.1.13,2013-01-20 09:06:00,
2013-01-20 01:15:00,36.6,32.5,30.22,North,360,0.0,0.0,85,0.00,,,0.00,Wunderground v.1.13,2013-01-20 09:15:00,
2013-01-20 01:20:00,36.5,32.4,30.22,North,32767,0.0,0.0,85,0.00,,,0.00,Wunderground v.1.13,2013-01-20 09:20:00,
2013-01-20 01:25:00,36.4,32.3,30.22,North,360,0.0,0.0,85,0.00,,,0.00,Wunderground v.1.13,2013-01-20 09:25:00,
2013-01-20 01:30:00,36.4,32.3,30.22,North,32767,0.0,0.0,85,0.00,,,0.00,Wunderground v.1.13,2013-01-20 09:30:00,
2013-01-20 01:40:00,36.2,32.1,30.22,North,32767,0.0,0.0,85,0.00,,,0.00,Wunderground v.1.13,2013-01-20 09:40:00,
2013-01-20 01:45:00,36.0,31.9,30.22,North,360,0.0,0.0,85,0.00,,,0.00,Wunderground v.1.13,2013-01-20 09:45:00,
2013-01-20 01:55:00,35.8,31.7,30.22,North,32767,0.0,0.0,85,0.00,,,0.00,Wunderground v.1.13,2013-01-20 09:55:00,
2013-01-20 02:00:00,35.7,31.6,30.22,North,360,0.0,0.0,85,0.00,,,0.00,Wunderground v.1.13,2013-01-20 10:00:00,
2013-01-20 02:06:00,35.6,31.5,30.22,North,32767,0.0,0.0,85,0.00,,,0.00,Wunderground v.1.13,2013-01-20 10:06:00,
2013-01-20 02:15:00,35.4,31.6,30.22,North,32767,0.0,0.0,86,0.00,,,0.00,Wunderground v.1.13,2013-01-20 10:15:00,
2013-01-20 02:20:00,35.3,31.2,30.23,North,32767,0.0,0.0,85,0.00,,,0.00,Wunderground v.1.13,2013-01-20 10:20:00,
2013-01-20 02:30:00,35.2,31.1,30.23,North,360,0.0,0.0,85,0.00,,,0.00,Wunderground v.1.13,2013-01-20 10:30:00,
2013-01-20 02:35:00,35.1,31.3,30.23,North,32767,0.0,0.0,86,0.00,,,0.00,Wunderground v.1.13,2013-01-20 10:35:00,
2013-01-20 02:40:00,35.0,31.2,30.23,North,360,0.0,0.0,86,0.00,,,0.00,Wunderground v.1.13,2013-01-20 10:40:00,
2013-01-20 02:45:00,34.9,31.1,30.23,North,32767,0.0,0.0,86,0.00,,,0.00,Wunderground v.1.13,2013-01-20 10:45:00,
2013-01-20 02:50:00,34.8,31.0,30.23,North,32767,0.0,0.0,86,0.00,,,0.00,Wunderground v.1.13,2013-01-20 10:50:00,
2013-01-20 03:00:00,34.8,31.0,30.23,North,32767,0.0,0.0,86,0.00,,,0.00,Wunderground v.1.13,2013-01-20 11:00:00,
2013-01-20 03:05:00,34.8,31.0,30.22,North,32767,0.0,0.0,86,0.00,,,0.00,Wunderground v.1.13,2013-01-20 11:05:00,
2013-01-20 03:15:00,34.8,31.0,30.22,North,360,0.0,0.0,86,0.00,,,0.00,Wunderground v.1.13,2013-01-20 11:15:00,
2013-01-20 03:20:00,34.7,30.9,30.22,North,32767,0.0,0.0,86,0.00,,,0.00,Wunderground v.1.13,2013-01-20 11:20:00,
2013-01-20 03:30:00,34.7,30.9,30.22,North,32767,0.0,0.0,86,0.00,,,0.00,Wunderground v.1.13,2013-01-20 11:30:00,
2013-01-20 03:40:00,34.7,31.2,30.22,North,360,0.0,0.0,87,0.00,,,0.00,Wunderground v.1.13,2013-01-20 11:40:00,
2013-01-20 03:45:00,34.7,31.2,30.22,North,32767,0.0,0.0,87,0.00,,,0.00,Wunderground v.1.13,2013-01-20 11:45:00,
2013-01-20 03:50:00,34.8,31.3,30.22,North,360,0.0,0.0,87,0.00,,,0.00,Wunderground v.1.13,2013-01-20 11:50:00,
2013-01-20 03:55:00,34.7,31.2,30.22,North,32767,0.0,0.0,87,0.00,,,0.00,Wunderground v.1.13,2013-01-20 11:55:00,
2013-01-20 04:00:00,34.7,31.2,30.22,North,32767,0.0,0.0,87,0.00,,,0.00,Wunderground v.1.13,2013-01-20 12:00:00,
2013-01-20 04:06:00,34.7,31.2,30.22,North,360,0.0,0.0,87,0.00,,,0.00,Wunderground v.1.13,2013-01-20 12:06:00,
2013-01-20 04:15:00,34.8,31.3,30.21,North,32767,0.0,0.0,87,0.00,,,0.00,Wunderground v.1.13,2013-01-20 12:15:00,
2013-01-20 04:20:00,34.7,31.2,30.22,North,360,0.0,0.0,87,0.00,,,0.00,Wunderground v.1.13,2013-01-20 12:20:00,
2013-01-20 04:25:00,34.7,31.2,30.21,North,32767,0.0,0.0,87,0.00,,,0.00,Wunderground v.1.13,2013-01-20 12:25:00,
2013-01-20 04:30:00,34.6,31.1,30.21,North,32767,0.0,0.0,87,0.00,,,0.00,Wunderground v.1.13,2013-01-20 12:30:00,
2013-01-20 04:35:00,34.5,31.0,30.21,North,32767,0.0,0.0,87,0.00,,,0.00,Wunderground v.1.13,2013-01-20 12:35:00,
2013-01-20 04:45:00,34.4,30.9,30.21,North,360,0.0,0.0,87,0.00,,,0.00,Wunderground v.1.13,2013-01-20 12:45:00,
2013-01-20 04:50:00,34.4,30.9,30.21,North,32767,0.0,0.0,87,0.00,,,0.00,Wunderground v.1.13,2013-01-20 12:50:00,
2013-01-20 04:55:00,34.4,30.9,30.21,North,32767,0.0,0.0,87,0.00,,,0.00,Wunderground v.1.13,2013-01-20 12:55:00,
2013-01-20 05:00:00,34.4,30.9,30.21,North,32767,0.0,0.0,87,0.00,,,0.00,Wunderground v.1.13,2013-01-20 13:00:00,
2013-01-20 05:05:00,34.2,30.7,30.21,North,360,0.0,0.0,87,0.00,,,0.00,Wunderground v.1.13,2013-01-20 13:05:00,
2013-01-20 05:15:00,34.0,30.5,30.21,North,32767,0.0,0.0,87,0.00,,,0.00,Wunderground v.1.13,2013-01-20 13:15:00,
2013-01-20 05:25:00,33.7,30.2,30.21,North,32767,0.0,0.0,87,0.00,,,0.00,Wunderground v.1.13,2013-01-20 13:25:00,
2013-01-20 05:35:00,33.5,30.0,30.21,North,360,0.0,0.0,87,0.00,,,0.00,Wunderground v.1.13,2013-01-20 13:35:00,
2013-01-20 05:40:00,33.5,30.0,30.21,North,32767,0.0,0.0,87,0.00,,,0.00,Wunderground v.1.13,2013-01-20 13:40:00,
2013-01-20 05:45:00,33.4,29.9,30.21,North,32767,0.0,0.0,87,0.00,,,0.00,Wunderground v.1.13,2013-01-20 13:45:00,
2013-01-20 05:50:00,33.3,29.8,30.20,North,32767,0.0,0.0,87,0.00,,,0.00,Wunderground v.1.13,2013-01-20 13:50:00,
2013-01-20 06:00:00,33.2,29.8,30.20,North,32767,0.0,0.0,87,0.00,,,0.00,Wunderground v.1.13,2013-01-20 14:00:00,
2013-01-20 06:06:00,33.1,29.7,30.20,North,32767,0.0,0.0,87,0.00,,,0.00,Wunderground v.1.13,2013-01-20 14:06:00,
2013-01-20 06:15:00,32.9,29.5,30.20,North,360,0.0,0.0,87,0.00,,,0.00,Wunderground v.1.13,2013-01-20 14:15:00,
2013-01-20 06:20:00,32.9,29.7,30.20,North,32767,0.0,0.0,88,0.00,,,0.00,Wunderground v.1.13,2013-01-20 14:20:00,
2013-01-20 06:25:00,32.8,29.6,30.20,North,360,0.0,0.0,88,0.00,,,0.00,Wunderground v.1.13,2013-01-20 14:25:00,
2013-01-20 06:30:00,32.8,29.6,30.20,North,360,0.0,0.0,88,0.00,,,0.00,Wunderground v.1.13,2013-01-20 14:30:00,
2013-01-20 06:35:00,32.7,29.5,30.20,North,360,0.0,0.0,88,0.00,,,0.00,Wunderground v.1.13,2013-01-20 14:35:00,
2013-01-20 06:40:00,32.7,29.5,30.20,North,32767,0.0,0.0,88,0.00,,,0.00,Wunderground v.1.13,2013-01-20 14:40:00,
2013-01-20 06:50:00,32.7,29.5,30.20,North,32767,0.0,0.0,88,0.00,,,0.00,Wunderground v.1.13,2013-01-20 14:50:00,
2013-01-20 06:55:00,32.7,29.5,30.20,North,32767,0.0,0.0,88,0.00,,,0.00,Wunderground v.1.13,2013-01-20 14:55:00,
2013-01-20 07:00:00,32.6,29.4,30.20,North,32767,0.0,0.0,88,0.00,,,0.00,Wunderground v.1.13,2013-01-20 15:00:00,
2013-01-20 07:05:00,32.6,29.4,30.20,North,32767,0.0,0.0,88,0.00,,,0.00,Wunderground v.1.13,2013-01-20 15:05:00,
2013-01-20 07:15:00,32.5,29.1,30.20,North,32767,0.0,0.0,87,0.00,,,0.00,Wunderground v.1.13,2013-01-20 15:15:00,
2013-01-20 07:20:00,32.4,29.0,30.21,North,32767,0.0,0.0,87,0.00,,,0.00,Wunderground v.1.13,2013-01-20 15:20:00,
2013-01-20 07:25:00,32.4,29.0,30.21,North,360,0.0,0.0,87,0.00,,,0.00,Wunderground v.1.13,2013-01-20 15:25:00,
2013-01-20 07:30:00,32.4,29.0,30.20,North,32767,0.0,0.0,87,0.00,,,0.00,Wunderground v.1.13,2013-01-20 15:30:00,
2013-01-20 07:35:00,32.3,28.9,30.20,North,360,0.0,0.0,87,0.00,,,0.00,Wunderground v.1.13,2013-01-20 15:35:00,
2013-01-20 07:45:00,32.3,28.9,30.21,North,32767,0.0,0.0,87,0.00,,,0.00,Wunderground v.1.13,2013-01-20 15:45:00,
2013-01-20 07:50:00,32.3,29.1,30.21,North,360,0.0,0.0,88,0.00,,,0.00,Wunderground v.1.13,2013-01-20 15:50:00,
2013-01-20 07:55:00,32.4,29.2,30.21,North,32767,0.0,0.0,88,0.00,,,0.00,Wunderground v.1.13,2013-01-20 15:55:00,
2013-01-20 08:00:00,32.4,29.2,30.21,North,360,0.0,0.0,88,0.00,,,0.00,Wunderground v.1.13,2013-01-20 16:00:00,
2013-01-20 08:06:00,32.6,29.4,30.21,North,360,0.0,0.0,88,0.00,,,0.00,Wunderground v.1.13,2013-01-20 16:06:00,
2013-01-20 08:15:00,33.0,29.8,30.21,North,32767,0.0,0.0,88,0.00,,,0.00,Wunderground v.1.13,2013-01-20 16:15:00,
2013-01-20 08:20:00,33.2,30.0,30.22,North,360,0.0,0.0,88,0.00,,,0.00,Wunderground v.1.13,2013-01-20 16:20:00,
2013-01-20 08:25:00,33.5,30.3,30.22,North,360,0.0,0.0,88,0.00,,,0.00,Wunderground v.1.13,2013-01-20 16:25:00,
2013-01-20 08:30:00,33.8,30.6,30.22,North,32767,0.0,0.0,88,0.00,,,0.00,Wunderground v.1.13,2013-01-20 16:30:00,
2013-01-20 08:35:00,34.1,30.9,30.22,North,32767,0.0,0.0,88,0.00,,,0.00,Wunderground v.1.13,2013-01-20 16:35:00,
2013-01-20 08:40:00,34.4,31.2,30.22,North,32767,0.0,0.0,88,0.00,,,0.00,Wunderground v.1.13,2013-01-20 16:40:00,
2013-01-20 08:50:00,35.4,32.5,30.21,North,360,0.0,0.0,89,0.00,,,0.00,Wunderground v.1.13,2013-01-20 16:50:00,
2013-01-20 08:55:00,37.0,34.3,30.22,North,32767,0.0,0.0,90,0.00,,,0.00,Wunderground v.1.13,2013-01-20 16:55:00,
2013-01-20 09:00:00,38.9,36.2,30.22,North,360,0.0,0.0,90,0.00,,,0.00,Wunderground v.1.13,2013-01-20 17:00:00,
2013-01-20 09:05:00,40.9,38.2,30.22,North,32767,0.0,0.0,90,0.00,,,0.00,Wunderground v.1.13,2013-01-20 17:05:00,
2013-01-20 09:15:00,44.6,41.3,30.22,North,32767,0.0,0.0,88,0.00,,,0.00,Wunderground v.1.13,2013-01-20 17:15:00,
2013-01-20 09:25:00,47.0,41.5,30.22,North,360,0.0,0.0,81,0.00,,,0.00,Wunderground v.1.13,2013-01-20 17:25:00,
2013-01-20 09:35:00,47.2,39.0,30.23,North,360,0.0,0.0,73,0.00,,,0.00,Wunderground v.1.13,2013-01-20 17:35:00,
2013-01-20 09:40:00,46.9,36.5,30.23,North,32767,0.0,0.0,67,0.00,,,0.00,Wunderground v.1.13,2013-01-20 17:40:00,
2013-01-20 09:45:00,46.9,35.7,30.23,North,360,0.0,0.0,65,0.00,,,0.00,Wunderground v.1.13,2013-01-20 17:45:00,
2013-01-20 09:50:00,47.0,36.2,30.23,North,32767,0.0,0.0,66,0.00,,,0.00,Wunderground v.1.13,2013-01-20 17:50:00,
2013-01-20 10:00:00,47.2,35.2,30.23,North,360,0.0,0.0,63,0.00,,,0.00,Wunderground v.1.13,2013-01-20 18:00:00,
2013-01-20 10:05:00,47.6,35.6,30.23,North,32767,0.0,0.0,63,0.00,,,0.00,Wunderground v.1.13,2013-01-20 18:05:00,
2013-01-20 10:15:00,48.3,35.5,30.23,North,32767,0.0,0.0,61,0.00,,,0.00,Wunderground v.1.13,2013-01-20 18:15:00,
2013-01-20 10:20:00,48.5,35.2,30.22,North,32767,0.0,0.0,60,0.00,,,0.00,Wunderground v.1.13,2013-01-20 18:20:00,
2013-01-20 10:25:00,48.8,35.1,30.22,North,360,0.0,0.0,59,0.00,,,0.00,Wunderground v.1.13,2013-01-20 18:25:00,
2013-01-20 10:35:00,49.2,35.5,30.22,North,32767,0.0,0.0,59,0.00,,,0.00,Wunderground v.1.13,2013-01-20 18:35:00,
2013-01-20 10:40:00,49.4,35.7,30.22,North,360,0.0,0.0,59,0.00,,,0.00,Wunderground v.1.13,2013-01-20 18:40:00,
2013-01-20 10:45:00,49.9,36.1,30.22,North,32767,0.0,0.0,59,0.00,,,0.00,Wunderground v.1.13,2013-01-20 18:45:00,
2013-01-20 10:50:00,50.3,36.1,30.22,North,360,0.0,0.0,58,0.00,,,0.00,Wunderground v.1.13,2013-01-20 18:50:00,
2013-01-20 10:55:00,50.5,36.3,30.22,North,32767,0.0,0.0,58,0.00,,,0.00,Wunderground v.1.13,2013-01-20 18:55:00,
2013-01-20 11:00:00,50.7,36.0,30.22,North,32767,0.0,0.0,57,0.00,,,0.00,Wunderground v.1.13,2013-01-20 19:00:00,
2013-01-20 11:06:00,50.8,36.1,30.21,North,32767,0.0,0.0,57,0.00,,,0.00,Wunderground v.1.13,2013-01-20 19:06:00,
2013-01-20 11:15:00,51.3,36.6,30.21,North,360,0.0,0.0,57,0.00,,,0.00,Wunderground v.1.13,2013-01-20 19:15:00,
2013-01-20 11:20:00,51.7,36.5,30.21,North,32767,0.0,0.0,56,0.00,,,0.00,Wunderground v.1.13,2013-01-20 19:20:00,
2013-01-20 11:25:00,52.1,36.9,30.21,North,360,0.0,0.0,56,0.00,,,0.00,Wunderground v.1.13,2013-01-20 19:25:00,
2013-01-20 11:30:00,52.3,36.6,30.20,North,32767,0.0,0.0,55,0.00,,,0.00,Wunderground v.1.13,2013-01-20 19:30:00,
2013-01-20 11:35:00,52.6,36.9,30.20,North,360,0.0,0.0,55,0.00,,,0.00,Wunderground v.1.13,2013-01-20 19:35:00,
2013-01-20 11:45:00,53.5,37.3,30.19,North,32767,0.0,0.0,54,0.00,,,0.00,Wunderground v.1.13,2013-01-20 19:45:00,
2013-01-20 11:50:00,53.9,37.6,30.19,North,360,0.0,0.0,54,0.00,,,0.00,Wunderground v.1.13,2013-01-20 19:50:00,
2013-01-20 12:00:00,54.8,38.0,30.18,North,360,0.0,0.0,53,0.00,,,0.00,Wunderground v.1.13,2013-01-20 20:00:00,
2013-01-20 12:05:00,55.3,38.4,30.18,North,360,0.0,0.0,53,0.00,,,0.00,Wunderground v.1.13,2013-01-20 20:05:00,
2013-01-20 12:15:00,55.7,38.8,30.18,North,32767,0.0,0.0,53,0.00,,,0.00,Wunderground v.1.13,2013-01-20 20:15:00,
2013-01-20 12:25:00,56.4,39.0,30.17,North,32767,0.0,0.0,52,0.00,,,0.00,Wunderground v.1.13,2013-01-20 20:25:00,
2013-01-20 12:30:00,56.8,38.9,30.17,North,32767,0.0,0.0,51,0.00,,,0.00,Wunderground v.1.13,2013-01-20 20:30:00,
2013-01-20 12:35:00,56.9,38.4,30.17,North,32767,0.0,0.0,50,0.00,,,0.00,Wunderground v.1.13,2013-01-20 20:35:00,
2013-01-20 12:40:00,57.1,38.6,30.17,North,32767,0.0,0.0,50,0.00,,,0.00,Wunderground v.1.13,2013-01-20 20:40:00,
2013-01-20 12:45:00,57.2,38.7,30.16,North,32767,0.0,0.0,50,0.00,,,0.00,Wunderground v.1.13,2013-01-20 20:45:00,
2013-01-20 12:55:00,57.6,39.1,30.16,North,360,0.0,0.0,50,0.00,,,0.00,Wunderground v.1.13,2013-01-20 20:55:00,
2013-01-20 13:00:00,58.6,39.5,30.15,North,32767,0.0,0.0,49,0.00,,,0.00,Wunderground v.1.13,2013-01-20 21:00:00,
2013-01-20 13:06:00,59.6,39.9,30.15,North,360,0.0,0.0,48,0.00,,,0.00,Wunderground v.1.13,2013-01-20 21:06:00,
2013-01-20 13:15:00,61.4,39.9,30.14,North,360,0.0,0.0,45,0.00,,,0.00,Wunderground v.1.13,2013-01-20 21:15:00,
2013-01-20 13:20:00,62.0,39.8,30.14,North,32767,0.0,0.0,44,0.00,,,0.00,Wunderground v.1.13,2013-01-20 21:20:00,
2013-01-20 13:30:00,63.0,40.1,30.14,North,360,0.0,0.0,43,0.00,,,0.00,Wunderground v.1.13,2013-01-20 21:30:00,
2013-01-20 13:35:00,63.2,39.7,30.14,North,32767,0.0,0.0,42,0.00,,,0.00,Wunderground v.1.13,2013-01-20 21:35:00,
2013-01-20 13:40:00,63.0,39.5,30.14,North,360,0.0,0.0,42,0.00,,,0.00,Wunderground v.1.13,2013-01-20 21:40:00,
2013-01-20 13:50:00,63.6,40.1,30.14,North,360,0.0,0.0,42,0.00,,,0.00,Wunderground v.1.13,2013-01-20 21:50:00,
2013-01-20 13:55:00,63.9,39.7,30.14,North,32767,0.0,0.0,41,0.00,,,0.00,Wunderground v.1.13,2013-01-20 21:55:00,
2013-01-20 14:05:00,65.0,38.8,30.13,North,32767,0.0,0.0,38,0.00,,,0.00,Wunderground v.1.13,2013-01-20 22:05:00,
2013-01-20 14:15:00,65.6,40.6,30.13,North,32767,0.0,0.0,40,0.00,,,0.00,Wunderground v.1.13,2013-01-20 22:15:00,
2013-01-20 14:20:00,66.0,39.7,30.13,North,360,0.0,0.0,38,0.00,,,0.00,Wunderground v.1.13,2013-01-20 22:20:00,
2013-01-20 14:25:00,66.6,40.9,30.13,North,32767,0.0,0.0,39,0.00,,,0.00,Wunderground v.1.13,2013-01-20 22:25:00,
2013-01-20 14:30:00,66.8,41.7,30.12,North,360,0.0,0.0,40,0.00,,,0.00,Wunderground v.1.13,2013-01-20 22:30:00,
2013-01-20 14:40:00,67.2,41.4,30.12,North,32767,0.0,0.0,39,0.00,,,0.00,Wunderground v.1.13,2013-01-20 22:40:00,
2013-01-20 14:45:00,67.4,42.2,30.13,North,360,0.0,0.0,40,0.00,,,0.00,Wunderground v.1.13,2013-01-20 22:45:00,
2013-01-20 14:50:00,67.1,42.0,30.13,North,32767,0.0,0.0,40,0.00,,,0.00,Wunderground v.1.13,2013-01-20 22:50:00,
2013-01-20 14:55:00,66.7,41.6,30.13,North,360,0.0,0.0,40,0.00,,,0.00,Wunderground v.1.13,2013-01-20 22:55:00,
2013-01-20 15:05:00,66.5,42.1,30.13,North,32767,0.0,0.0,41,0.00,,,0.00,Wunderground v.1.13,2013-01-20 23:05:00,
2013-01-20 15:15:00,64.5,41.5,30.14,North,360,0.0,0.0,43,0.00,,,0.00,Wunderground v.1.13,2013-01-20 23:15:00,
2013-01-20 15:20:00,63.5,40.6,30.14,North,32767,0.0,0.0,43,0.00,,,0.00,Wunderground v.1.13,2013-01-20 23:20:00,
2013-01-20 15:30:00,61.9,40.3,30.14,North,32767,0.0,0.0,45,0.00,,,0.00,Wunderground v.1.13,2013-01-20 23:30:00,
2013-01-20 15:35:00,61.5,39.9,30.14,North,360,0.0,0.0,45,0.00,,,0.00,Wunderground v.1.13,2013-01-20 23:35:00,
2013-01-20 15:40:00,61.2,40.2,30.14,North,32767,0.0,0.0,46,0.00,,,0.00,Wunderground v.1.13,2013-01-20 23:40:00,
2013-01-20 15:50:00,60.7,39.8,30.14,North,360,0.0,0.0,46,0.00,,,0.00,Wunderground v.1.13,2013-01-20 23:50:00,
2013-01-20 15:55:00,60.5,39.6,30.15,North,32767,0.0,0.0,46,0.00,,,0.00,Wunderground v.1.13,2013-01-20 23:55:00,
2013-01-20 16:00:00,60.3,40.0,30.15,North,32767,0.0,0.0,47,0.00,,,0.00,Wunderground v.1.13,2013-01-21 00:00:00,
2013-01-20 16:06:00,60.1,39.8,30.15,North,360,0.0,0.0,47,0.00,,,0.00,Wunderground v.1.13,2013-01-21 00:06:00,
2013-01-20 16:15:00,59.9,40.7,30.15,North,32767,0.0,0.0,49,0.00,,,0.00,Wunderground v.1.13,2013-01-21 00:15:00,
2013-01-20 16:25:00,59.5,40.8,30.15,North,360,0.0,0.0,50,0.00,,,0.00,Wunderground v.1.13,2013-01-21 00:25:00,
2013-01-20 16:30:00,59.2,40.6,30.15,North,32767,0.0,0.0,50,0.00,,,0.00,Wunderground v.1.13,2013-01-21 00:30:00,
2013-01-20 16:35:00,59.0,40.4,30.15,North,32767,0.0,0.0,50,0.00,,,0.00,Wunderground v.1.13,2013-01-21 00:35:00,
2013-01-20 16:45:00,58.0,40.0,30.15,North,32767,0.0,0.0,51,0.00,,,0.00,Wunderground v.1.13,2013-01-21 00:45:00,
2013-01-20 16:50:00,57.5,40.0,30.15,North,360,0.0,0.0,52,0.00,,,0.00,Wunderground v.1.13,2013-01-21 00:50:00,
2013-01-20 17:00:00,56.4,39.5,30.15,North,32767,0.0,0.0,53,0.00,,,0.00,Wunderground v.1.13,2013-01-21 01:00:00,
2013-01-20 17:06:00,55.9,39.5,30.15,North,32767,0.0,0.0,54,0.00,,,0.00,Wunderground v.1.13,2013-01-21 01:06:00,
2013-01-20 17:15:00,54.9,39.5,30.15,North,360,0.0,0.0,56,0.00,,,0.00,Wunderground v.1.13,2013-01-21 01:15:00,
2013-01-20 17:20:00,54.3,39.4,30.15,North,32767,0.0,0.0,57,0.00,,,0.00,Wunderground v.1.13,2013-01-21 01:20:00,
2013-01-20 17:25:00,53.7,39.3,30.15,North,360,0.0,0.0,58,0.00,,,0.00,Wunderground v.1.13,2013-01-21 01:25:00,
2013-01-20 17:35:00,52.6,38.7,30.14,North,32767,0.0,0.0,59,0.00,,,0.00,Wunderground v.1.13,2013-01-21 01:35:00,
2013-01-20 17:40:00,52.0,39.0,30.14,North,360,0.0,0.0,61,0.00,,,0.00,Wunderground v.1.13,2013-01-21 01:40:00,
2013-01-20 17:45:00,51.5,38.9,30.14,North,32767,0.0,0.0,62,0.00,,,0.00,Wunderground v.1.13,2013-01-21 01:45:00,
2013-01-20 17:50:00,50.9,38.7,30.14,North,360,0.0,0.0,63,0.00,,,0.00,Wunderground v.1.13,2013-01-21 01:50:00,
2013-01-20 17:55:00,50.3,38.6,30.14,North,32767,0.0,0.0,64,0.00,,,0.00,Wunderground v.1.13,2013-01-21 01:55:00,
2013-01-20 18:06:00,49.3,38.0,30.14,North,32767,0.0,0.0,65,0.00,,,0.00,Wunderground v.1.13,2013-01-21 02:06:00,
2013-01-20 18:15:00,48.6,37.7,30.15,North,360,0.0,0.0,66,0.00,,,0.00,Wunderground v.1.13,2013-01-21 02:15:00,
2013-01-20 18:20:00,48.2,37.8,30.15,North,32767,0.0,0.0,67,0.00,,,0.00,Wunderground v.1.13,2013-01-21 02:20:00,
2013-01-20 18:25:00,47.8,37.7,30.15,North,360,0.0,0.0,68,0.00,,,0.00,Wunderground v.1.13,2013-01-21 02:25:00,
2013-01-20 18:30:00,47.4,37.7,30.15,North,32767,0.0,0.0,69,0.00,,,0.00,Wunderground v.1.13,2013-01-21 02:30:00,
2013-01-20 18:40:00,46.7,37.4,30.15,North,360,0.0,0.0,70,0.00,,,0.00,Wunderground v.1.13,2013-01-21 02:40:00,
2013-01-20 18:50:00,46.0,36.8,30.16,North,360,0.0,0.0,70,0.00,,,0.00,Wunderground v.1.13,2013-01-21 02:50:00,
2013-01-20 18:55:00,45.7,36.8,30.16,North,32767,0.0,0.0,71,0.00,,,0.00,Wunderground v.1.13,2013-01-21 02:55:00,
2013-01-20 19:00:00,45.4,36.5,30.16,North,360,0.0,0.0,71,0.00,,,0.00,Wunderground v.1.13,2013-01-21 03:00:00,
2013-01-20 19:06:00,45.1,36.6,30.16,North,32767,0.0,0.0,72,0.00,,,0.00,Wunderground v.1.13,2013-01-21 03:06:00,
2013-01-20 19:15:00,44.6,36.5,30.16,North,32767,0.0,0.0,73,0.00,,,0.00,Wunderground v.1.13,2013-01-21 03:15:00,
2013-01-20 19:20:00,44.4,36.3,30.16,North,32767,0.0,0.0,73,0.00,,,0.00,Wunderground v.1.13,2013-01-21 03:20:00,
2013-01-20 19:25:00,44.2,36.4,30.16,North,32767,0.0,0.0,74,0.00,,,0.00,Wunderground v.1.13,2013-01-21 03:25:00,
2013-01-20 19:30:00,44.0,36.2,30.16,North,32767,0.0,0.0,74,0.00,,,0.00,Wunderground v.1.13,2013-01-21 03:30:00,
2013-01-20 19:35:00,43.8,36.0,30.16,North,32767,0.0,0.0,74,0.00,,,0.00,Wunderground v.1.13,2013-01-21 03:35:00,
2013-01-20 19:40:00,43.7,36.3,30.16,North,360,0.0,0.0,75,0.00,,,0.00,Wunderground v.1.13,2013-01-21 03:40:00,
2013-01-20 19:50:00,43.3,35.9,30.16,North,32767,0.0,0.0,75,0.00,,,0.00,Wunderground v.1.13,2013-01-21 03:50:00,
2013-01-20 19:55:00,43.2,35.8,30.17,North,32767,0.0,0.0,75,0.00,,,0.00,Wunderground v.1.13,2013-01-21 03:55:00,
2013-01-20 20:00:00,43.0,36.0,30.17,North,32767,0.0,0.0,76,0.00,,,0.00,Wunderground v.1.13,2013-01-21 04:00:00,
2013-01-20 20:06:00,42.7,35.7,30.17,North,360,0.0,0.0,76,0.00,,,0.00,Wunderground v.1.13,2013-01-21 04:06:00,
2013-01-20 20:15:00,42.4,35.7,30.17,North,360,0.0,0.0,77,0.00,,,0.00,Wunderground v.1.13,2013-01-21 04:15:00,
2013-01-20 20:25:00,42.1,35.4,30.17,North,32767,0.0,0.0,77,0.00,,,0.00,Wunderground v.1.13,2013-01-21 04:25:00,
2013-01-20 20:30:00,41.9,35.2,30.17,North,360,0.0,0.0,77,0.00,,,0.00,Wunderground v.1.13,2013-01-21 04:30:00,
2013-01-20 20:40:00,41.6,35.2,30.18,North,360,0.0,0.0,78,0.00,,,0.00,Wunderground v.1.13,2013-01-21 04:40:00,
2013-01-20 20:45:00,41.4,35.1,30.18,North,32767,0.0,0.0,78,0.00,,,0.00,Wunderground v.1.13,2013-01-21 04:45:00,
2013-01-20 20:50:00,41.3,35.0,30.17,North,360,0.0,0.0,78,0.00,,,0.00,Wunderground v.1.13,2013-01-21 04:50:00,
2013-01-20 20:55:00,41.1,34.8,30.17,North,360,0.0,0.0,78,0.00,,,0.00,Wunderground v.1.13,2013-01-21 04:55:00,
2013-01-20 21:06:00,40.8,34.5,30.17,North,360,0.0,0.0,78,0.00,,,0.00,Wunderground v.1.13,2013-01-21 05:06:00,
2013-01-20 21:10:00,40.7,34.4,30.17,North,32767,0.0,0.0,78,0.00,,,0.00,Wunderground v.1.13,2013-01-21 05:10:00,
2013-01-20 21:15:00,40.6,34.3,30.17,North,32767,0.0,0.0,78,0.00,,,0.00,Wunderground v.1.13,2013-01-21 05:15:00,
2013-01-20 21:20:00,40.5,34.5,30.17,North,32767,0.0,0.0,79,0.00,,,0.00,Wunderground v.1.13,2013-01-21 05:20:00,
2013-01-20 21:25:00,40.5,34.5,30.17,North,360,0.0,0.0,79,0.00,,,0.00,Wunderground v.1.13,2013-01-21 05:25:00,
2013-01-20 21:30:00,40.4,34.4,30.17,North,360,0.0,0.0,79,0.00,,,0.00,Wunderground v.1.13,2013-01-21 05:30:00,
2013-01-20 21:40:00,40.2,34.2,30.18,North,32767,0.0,0.0,79,0.00,,,0.00,Wunderground v.1.13,2013-01-21 05:40:00,
2013-01-20 21:45:00,40.1,34.1,30.18,North,360,0.0,0.0,79,0.00,,,0.00,Wunderground v.1.13,2013-01-21 05:45:00,
2013-01-20 21:55:00,40.0,34.0,30.18,North,360,0.0,0.0,79,0.00,,,0.00,Wunderground v.1.13,2013-01-21 05:55:00,
2013-01-20 22:00:00,39.8,34.1,30.18,North,32767,0.0,0.0,80,0.00,,,0.00,Wunderground v.1.13,2013-01-21 06:00:00,
2013-01-20 22:06:00,39.8,34.1,30.18,North,32767,0.0,0.0,80,0.00,,,0.00,Wunderground v.1.13,2013-01-21 06:06:00,
2013-01-20 22:15:00,39.6,33.9,30.18,North,32767,0.0,0.0,80,0.00,,,0.00,Wunderground v.1.13,2013-01-21 06:15:00,
2013-01-20 22:25:00,39.4,34.1,30.18,North,360,0.0,0.0,81,0.00,,,0.00,Wunderground v.1.13,2013-01-21 06:25:00,
2013-01-20 22:30:00,39.3,34.0,30.18,North,32767,0.0,0.0,81,0.00,,,0.00,Wunderground v.1.13,2013-01-21 06:30:00,
2013-01-20 22:35:00,39.2,33.9,30.18,North,360,0.0,0.0,81,0.00,,,0.00,Wunderground v.1.13,2013-01-21 06:35:00,
2013-01-20 22:40:00,39.1,33.8,30.18,North,32767,0.0,0.0,81,0.00,,,0.00,Wunderground v.1.13,2013-01-21 06:40:00,
2013-01-20 22:50:00,38.9,33.9,30.18,North,32767,0.0,0.0,82,0.00,,,0.00,Wunderground v.1.13,2013-01-21 06:50:00,
2013-01-20 22:55:00,38.8,33.5,30.18,North,32767,0.0,0.0,81,0.00,,,0.00,Wunderground v.1.13,2013-01-21 06:55:00,
2013-01-20 23:00:00,38.7,33.7,30.18,North,32767,0.0,0.0,82,0.00,,,0.00,Wunderground v.1.13,2013-01-21 07:00:00,
2013-01-20 23:06:00,38.6,33.6,30.18,North,32767,0.0,0.0,82,0.00,,,0.00,Wunderground v.1.13,2013-01-21 07:06:00,
2013-01-20 23:15:00,38.3,33.3,30.18,North,32767,0.0,0.0,82,0.00,,,0.00,Wunderground v.1.13,2013-01-21 07:15:00,
2013-01-20 23:25:00,38.0,33.0,30.18,North,32767,0.0,0.0,82,0.00,,,0.00,Wunderground v.1.13,2013-01-21 07:25:00,
2013-01-20 23:30:00,37.9,32.9,30.17,North,32767,0.0,0.0,82,0.00,,,0.00,Wunderground v.1.13,2013-01-21 07:30:00,
2013-01-20 23:35:00,37.7,32.7,30.17,North,32767,0.0,0.0,82,0.00,,,0.00,Wunderground v.1.13,2013-01-21 07:35:00,
2013-01-20 23:40:00,37.6,32.9,30.17,North,32767,0.0,0.0,83,0.00,,,0.00,Wunderground v.1.13,2013-01-21 07:40:00,
2013-01-20 23:50:00,37.3,32.6,30.17,North,32767,0.0,0.0,83,0.00,,,0.00,Wunderground v.1.13,2013-01-21 07:50:00,